createdAt,value
2018-07-04T00:02:03.004Z,15.50
2018-07-04T00:04:42.519Z,15.50
2018-07-04T00:07:22.010Z,15.50
2018-07-04T00:10:01.481Z,15.40
2018-07-04T00:12:47.745Z,15.30
2018-07-04T00:15:28.272Z,15.30
2018-07-04T00:18:07.776Z,15.20
2018-07-04T00:20:47.140Z,15.20
2018-07-04T00:23:26.700Z,15.10
2018-07-04T00:26:06.240Z,15.20
2018-07-04T00:28:50.523Z,15.20
2018-07-04T00:31:29.956Z,15.20
2018-07-04T00:34:09.421Z,15.20
2018-07-04T00:36:48.908Z,15.10
2018-07-04T00:39:29.471Z,15.00
2018-07-04T00:42:09.946Z,14.90
2018-07-04T00:44:49.500Z,14.80
2018-07-04T00:47:29.075Z,14.80
2018-07-04T00:50:08.580Z,14.80
2018-07-04T00:52:48.425Z,14.80
2018-07-04T00:55:28.781Z,14.70
2018-07-04T00:58:08.620Z,14.70
2018-07-04T01:00:49.125Z,14.70
2018-07-04T01:03:29.536Z,14.60
2018-07-04T01:06:09.152Z,14.50
2018-07-04T01:08:48.643Z,14.50
2018-07-04T01:11:27.976Z,14.50
2018-07-04T01:14:07.595Z,14.40
2018-07-04T01:16:47.106Z,14.40
2018-07-04T01:19:26.644Z,14.40
2018-07-04T01:22:06.224Z,14.40
2018-07-04T01:24:45.762Z,14.40
2018-07-04T01:27:25.704Z,14.40
2018-07-04T01:30:05.216Z,14.30
2018-07-04T01:32:44.808Z,14.30
2018-07-04T01:35:24.197Z,14.30
2018-07-04T01:38:03.689Z,14.20
2018-07-04T01:40:43.226Z,14.20
2018-07-04T01:43:22.876Z,14.20
2018-07-04T01:46:02.464Z,14.20
2018-07-04T01:48:42.052Z,14.10
2018-07-04T01:51:22.157Z,14.20
2018-07-04T01:54:01.656Z,14.20
2018-07-04T01:56:41.139Z,14.10
2018-07-04T01:59:20.637Z,14.10
2018-07-04T02:02:00.175Z,14.10
2018-07-04T02:04:40.073Z,14.00
2018-07-04T02:07:19.702Z,14.00
2018-07-04T02:10:00.061Z,14.00
2018-07-04T02:12:39.506Z,14.00
2018-07-04T02:15:22.532Z,14.00
2018-07-04T02:18:02.185Z,13.90
2018-07-04T02:20:41.606Z,13.90
2018-07-04T02:23:21.081Z,13.90
2018-07-04T02:28:35.389Z,13.90
2018-07-04T02:31:18.004Z,14.00
2018-07-04T02:33:57.507Z,13.90
2018-07-04T02:39:11.528Z,13.80
2018-07-04T02:41:50.969Z,13.80
2018-07-04T02:44:30.344Z,13.80
2018-07-04T02:49:46.470Z,13.80
2018-07-04T02:54:59.838Z,13.70
2018-07-04T02:57:40.058Z,13.70
2018-07-04T03:00:19.566Z,13.80
2018-07-04T03:02:59.024Z,13.80
2018-07-04T03:05:38.551Z,14.00
2018-07-04T03:08:18.089Z,14.10
2018-07-04T03:10:57.600Z,14.00
2018-07-04T03:13:37.256Z,13.70
2018-07-04T03:16:16.757Z,13.70
2018-07-04T03:19:00.271Z,13.80
2018-07-04T03:21:39.672Z,13.90
2018-07-04T03:24:20.188Z,13.80
2018-07-04T03:27:00.852Z,13.90
2018-07-04T03:29:40.461Z,13.90
2018-07-04T03:32:24.234Z,13.80
2018-07-04T03:35:03.803Z,13.80
2018-07-04T03:37:43.416Z,13.90
2018-07-04T03:40:22.908Z,13.80
2018-07-04T03:43:02.452Z,13.90
2018-07-04T03:45:42.123Z,14.00
2018-07-04T03:48:24.440Z,14.00
2018-07-04T03:51:03.870Z,14.00
2018-07-04T03:53:43.384Z,14.10
2018-07-04T03:56:23.048Z,14.20
2018-07-04T03:59:03.513Z,14.30
2018-07-04T04:01:50.557Z,14.60
2018-07-04T04:04:33.532Z,14.80
2018-07-04T04:07:12.918Z,14.80
2018-07-04T04:09:52.932Z,14.90
2018-07-04T04:12:32.417Z,15.10
2018-07-04T04:15:11.932Z,15.70
2018-07-04T04:17:54.940Z,16.50
2018-07-04T04:20:34.709Z,16.80
2018-07-04T04:23:15.355Z,17.20
2018-07-04T04:25:54.860Z,17.50
2018-07-04T04:31:09.173Z,18.60
2018-07-04T04:33:53.119Z,18.90
2018-07-04T04:36:32.461Z,19.10
2018-07-04T04:39:12.997Z,19.30
2018-07-04T04:41:52.592Z,19.70
2018-07-04T04:44:32.082Z,20.10
2018-07-04T04:47:11.628Z,19.60
2018-07-04T04:49:55.163Z,19.60
2018-07-04T04:52:34.843Z,20.40
2018-07-04T04:55:15.180Z,20.80
2018-07-04T04:57:54.765Z,21.30
2018-07-04T05:00:34.368Z,21.30
2018-07-04T05:03:14.000Z,20.80
2018-07-04T05:05:53.789Z,20.50
2018-07-04T05:08:34.000Z,20.20
2018-07-04T05:11:13.615Z,20.30
2018-07-04T05:13:53.166Z,20.50
2018-07-04T05:16:32.715Z,20.70
2018-07-04T05:19:15.509Z,20.70
2018-07-04T05:21:55.031Z,21.10
2018-07-04T05:24:35.476Z,21.40
2018-07-04T05:27:14.988Z,21.80
2018-07-04T05:29:55.124Z,22.50
2018-07-04T05:32:34.644Z,22.70
2018-07-04T05:35:14.400Z,22.90
2018-07-04T05:37:54.493Z,23.10
2018-07-04T05:40:34.025Z,23.10
2018-07-04T05:43:13.675Z,23.00
2018-07-04T05:45:53.112Z,23.00
2018-07-04T05:48:32.845Z,23.40
2018-07-04T05:51:12.489Z,23.40
2018-07-04T05:53:51.912Z,23.70
2018-07-04T05:56:31.451Z,23.50
2018-07-04T06:01:45.006Z,24.90
2018-07-04T06:04:24.633Z,25.20
2018-07-04T06:07:04.204Z,25.90
2018-07-04T06:09:45.673Z,26.70
2018-07-04T06:12:25.176Z,27.00
2018-07-04T06:15:04.691Z,27.30
2018-07-04T06:17:44.832Z,27.40
2018-07-04T06:20:24.156Z,27.20
2018-07-04T06:23:03.561Z,26.90
2018-07-04T06:25:43.036Z,27.40
2018-07-04T06:28:23.460Z,27.30
2018-07-04T06:31:02.975Z,27.00
2018-07-04T06:33:42.520Z,28.00
2018-07-04T06:36:22.024Z,28.40
2018-07-04T06:38:49.292Z,28.10
2018-07-04T06:41:16.532Z,28.50
2018-07-04T06:43:43.777Z,28.70
2018-07-04T06:46:12.252Z,29.00
2018-07-04T06:51:07.377Z,27.90
2018-07-04T06:53:34.716Z,26.70
2018-07-04T06:56:02.083Z,25.80
2018-07-04T06:58:29.416Z,25.00
2018-07-04T07:00:56.670Z,25.00
2018-07-04T07:03:36.292Z,24.80
2018-07-04T07:06:15.838Z,25.00
2018-07-04T07:08:55.484Z,25.10
2018-07-04T07:11:34.856Z,25.10
2018-07-04T07:14:14.462Z,25.00
2018-07-04T07:16:54.151Z,25.30
2018-07-04T07:19:34.363Z,25.50
2018-07-04T07:22:13.938Z,25.20
2018-07-04T07:24:53.585Z,25.10
2018-07-04T07:27:33.194Z,25.00
2018-07-04T07:30:12.844Z,25.00
2018-07-04T07:32:52.465Z,25.40
2018-07-04T07:35:39.774Z,25.90
2018-07-04T07:38:19.364Z,26.30
2018-07-04T07:40:58.853Z,26.60
2018-07-04T07:43:38.548Z,26.60
2018-07-04T07:46:18.003Z,26.70
2018-07-04T07:51:32.228Z,26.80
2018-07-04T07:54:15.534Z,27.00
2018-07-04T07:56:54.917Z,27.10
2018-07-04T07:59:34.255Z,27.20
2018-07-04T08:02:14.612Z,27.50
2018-07-04T08:04:54.156Z,27.40
2018-07-04T08:07:33.804Z,27.00
2018-07-04T08:10:13.293Z,26.80
2018-07-04T08:12:52.759Z,26.60
2018-07-04T08:15:32.222Z,26.30
2018-07-04T08:18:11.918Z,26.20
2018-07-04T08:20:55.752Z,26.10
2018-07-04T08:23:35.286Z,26.00
2018-07-04T08:28:48.349Z,26.10
2018-07-04T08:34:01.853Z,26.10
2018-07-04T08:36:41.852Z,26.10
2018-07-04T08:39:21.319Z,26.30
2018-07-04T08:42:00.801Z,26.40
2018-07-04T08:44:40.465Z,26.50
2018-07-04T08:47:20.015Z,26.50
2018-07-04T08:49:59.533Z,26.50
2018-07-04T08:52:39.023Z,26.40
2018-07-04T08:55:18.608Z,26.50
2018-07-04T08:57:58.107Z,26.60
2018-07-04T09:00:38.188Z,26.90
2018-07-04T09:03:17.826Z,27.10
2018-07-04T09:05:57.341Z,27.30
2018-07-04T09:08:40.351Z,27.40
2018-07-04T09:11:19.876Z,27.50
2018-07-04T09:13:59.470Z,27.40
2018-07-04T09:16:39.609Z,27.50
2018-07-04T09:19:19.132Z,27.60
2018-07-04T09:21:58.638Z,27.90
2018-07-04T09:27:15.304Z,28.30
2018-07-04T09:29:54.939Z,28.30
2018-07-04T09:32:35.109Z,28.10
2018-07-04T09:35:14.523Z,28.20
2018-07-04T09:37:53.960Z,28.10
2018-07-04T09:40:33.417Z,28.10
2018-07-04T09:43:12.835Z,28.10
2018-07-04T09:45:52.192Z,28.10
2018-07-04T09:48:31.620Z,27.90
2018-07-04T09:51:11.138Z,27.80
2018-07-04T09:53:58.335Z,27.90
2018-07-04T09:56:37.915Z,28.10
2018-07-04T09:59:17.472Z,28.10
2018-07-04T10:01:56.892Z,28.10
2018-07-04T10:04:36.427Z,28.20
2018-07-04T10:07:15.988Z,28.40
2018-07-04T10:09:56.153Z,28.20
2018-07-04T10:12:35.534Z,27.80
2018-07-04T10:15:15.203Z,27.90
2018-07-04T10:17:55.067Z,28.30
2018-07-04T10:20:34.729Z,28.50
2018-07-04T10:23:26.009Z,28.30
2018-07-04T10:26:05.637Z,28.20
2018-07-04T10:28:45.219Z,28.40
2018-07-04T10:31:24.883Z,28.70
2018-07-04T10:34:04.792Z,29.10
2018-07-04T10:36:44.532Z,29.00
2018-07-04T10:39:28.809Z,29.00
2018-07-04T10:44:42.001Z,29.20
2018-07-04T10:47:21.636Z,29.50
2018-07-04T10:50:01.277Z,29.80
2018-07-04T10:52:40.911Z,29.60
2018-07-04T10:55:24.492Z,28.70
2018-07-04T10:58:03.973Z,28.50
2018-07-04T11:00:43.425Z,28.80
2018-07-04T11:03:22.967Z,29.10
2018-07-04T11:06:02.350Z,29.30
2018-07-04T11:08:44.987Z,29.50
2018-07-04T11:11:24.588Z,29.60
2018-07-04T11:14:04.063Z,29.80
2018-07-04T11:16:43.653Z,30.00
2018-07-04T11:19:23.234Z,30.00
2018-07-04T11:22:03.644Z,30.20
2018-07-04T11:24:43.127Z,30.40
2018-07-04T11:27:22.552Z,30.70
2018-07-04T11:30:02.382Z,30.80
2018-07-04T11:32:42.063Z,30.90
2018-07-04T11:35:22.627Z,31.20
2018-07-04T11:38:02.219Z,31.40
2018-07-04T11:40:41.756Z,30.80
2018-07-04T11:45:55.328Z,29.30
2018-07-04T11:48:23.831Z,29.50
2018-07-04T11:50:51.472Z,29.90
2018-07-04T11:53:18.778Z,29.90
2018-07-04T11:55:46.028Z,30.10
2018-07-04T11:58:13.660Z,30.30
2018-07-04T12:00:40.926Z,30.70
2018-07-04T12:03:16.161Z,31.00
2018-07-04T12:05:56.220Z,31.20
2018-07-04T12:08:23.478Z,30.70
2018-07-04T12:10:50.973Z,30.30
2018-07-04T12:13:19.409Z,29.60
2018-07-04T12:15:47.585Z,29.30
2018-07-04T12:18:14.835Z,28.90
2018-07-04T12:20:43.111Z,29.40
2018-07-04T12:23:10.845Z,29.80
2018-07-04T12:25:38.493Z,29.90
2018-07-04T12:28:05.831Z,30.30
2018-07-04T12:30:34.143Z,30.40
2018-07-04T12:33:01.894Z,30.20
2018-07-04T12:35:29.173Z,30.10
2018-07-04T12:37:56.492Z,30.10
2018-07-04T12:40:26.965Z,29.90
2018-07-04T12:42:54.266Z,29.80
2018-07-04T12:45:22.297Z,30.10
2018-07-04T12:47:49.658Z,30.20
2018-07-04T12:50:26.316Z,30.40
2018-07-04T12:52:54.248Z,30.50
2018-07-04T12:55:43.109Z,30.40
2018-07-04T12:58:22.805Z,30.20
2018-07-04T13:01:02.380Z,29.90
2018-07-04T13:03:41.974Z,29.90
2018-07-04T13:06:21.397Z,29.90
2018-07-04T13:09:01.665Z,30.00
2018-07-04T13:11:41.369Z,30.30
2018-07-04T13:14:21.105Z,30.50
2018-07-04T13:17:00.756Z,30.90
2018-07-04T13:19:40.443Z,30.80
2018-07-04T13:24:54.453Z,30.90
2018-07-04T13:27:34.148Z,31.20
2018-07-04T13:30:13.599Z,30.90
2018-07-04T13:32:53.196Z,30.70
2018-07-04T13:35:32.677Z,30.20
2018-07-04T13:38:12.216Z,30.30
2018-07-04T13:43:26.440Z,30.40
2018-07-04T13:46:05.925Z,30.30
2018-07-04T13:51:19.326Z,30.40
2018-07-04T13:53:58.906Z,30.20
2018-07-04T13:59:12.270Z,30.40
2018-07-04T14:04:25.758Z,30.80
2018-07-04T14:07:05.502Z,30.90
2018-07-04T14:09:45.397Z,30.60
2018-07-04T14:12:25.977Z,30.80
2018-07-04T14:15:05.656Z,30.20
2018-07-04T14:17:45.250Z,30.40
2018-07-04T14:22:59.199Z,30.30
2018-07-04T14:25:38.843Z,30.30
2018-07-04T14:28:18.605Z,30.70
2018-07-04T14:30:58.392Z,30.20
2018-07-04T14:33:38.082Z,30.50
2018-07-04T14:36:17.670Z,30.40
2018-07-04T14:38:58.419Z,30.40
2018-07-04T14:41:37.985Z,30.00
2018-07-04T14:44:17.686Z,29.80
2018-07-04T14:46:57.228Z,29.70
2018-07-04T14:49:36.709Z,29.60
2018-07-04T14:54:52.054Z,29.20
2018-07-04T14:57:34.892Z,29.20
2018-07-04T15:00:14.624Z,29.10
2018-07-04T15:02:54.369Z,29.10
2018-07-04T15:05:34.019Z,28.90
2018-07-04T15:08:13.618Z,28.90
2018-07-04T15:10:53.121Z,29.00
2018-07-04T15:13:32.717Z,29.00
2018-07-04T15:16:12.307Z,29.20
2018-07-04T15:18:52.044Z,29.10
2018-07-04T15:21:31.759Z,29.20
2018-07-04T15:24:11.376Z,29.40
2018-07-04T15:26:51.862Z,29.50
2018-07-04T15:29:34.347Z,29.90
2018-07-04T15:32:13.854Z,30.30
2018-07-04T15:34:53.374Z,30.40
2018-07-04T15:37:33.072Z,30.30
2018-07-04T15:40:12.632Z,30.10
2018-07-04T15:42:52.388Z,30.20
2018-07-04T15:45:31.999Z,30.20
2018-07-04T15:50:45.474Z,29.90
2018-07-04T15:53:25.226Z,29.70
2018-07-04T15:56:04.803Z,29.90
2018-07-04T15:58:48.466Z,29.70
2018-07-04T16:01:27.981Z,29.70
2018-07-04T16:04:07.723Z,29.80
2018-07-04T16:06:47.339Z,29.90
2018-07-04T16:09:26.807Z,30.20
2018-07-04T16:12:07.589Z,30.30
2018-07-04T16:14:47.064Z,31.30
2018-07-04T16:17:26.843Z,32.20
2018-07-04T16:20:06.704Z,32.30
2018-07-04T16:22:46.229Z,31.80
2018-07-04T16:28:00.034Z,29.80
2018-07-04T16:30:39.604Z,29.20
2018-07-04T16:33:19.309Z,28.80
2018-07-04T16:35:58.732Z,28.40
2018-07-04T16:38:38.306Z,28.20
2018-07-04T16:43:52.062Z,27.80
2018-07-04T16:49:08.404Z,27.60
2018-07-04T16:54:21.756Z,27.40
2018-07-04T16:57:01.257Z,27.30
2018-07-04T16:59:45.126Z,27.00
2018-07-04T17:02:24.813Z,26.50
2018-07-04T17:05:04.370Z,25.90
2018-07-04T17:07:43.946Z,25.20
2018-07-04T17:10:23.552Z,24.50
2018-07-04T17:13:03.162Z,24.20
2018-07-04T17:15:43.293Z,24.10
2018-07-04T17:18:22.837Z,24.00
2018-07-04T17:21:02.344Z,23.90
2018-07-04T17:23:42.022Z,24.00
2018-07-04T17:28:55.098Z,24.10
2018-07-04T17:31:37.720Z,24.60
2018-07-04T17:34:17.304Z,25.00
2018-07-04T17:36:57.304Z,24.90
2018-07-04T17:39:36.714Z,24.80
2018-07-04T17:42:16.305Z,24.90
2018-07-04T17:44:55.988Z,25.00
2018-07-04T17:50:09.179Z,25.10
2018-07-04T17:52:48.767Z,25.20
2018-07-04T17:58:02.549Z,25.40
2018-07-04T18:00:44.980Z,25.40
2018-07-04T18:03:24.645Z,25.40
2018-07-04T18:06:04.283Z,25.30
2018-07-04T18:08:43.737Z,25.20
2018-07-04T18:11:24.007Z,25.20
2018-07-04T18:14:03.442Z,25.00
2018-07-04T18:16:43.351Z,24.80
2018-07-04T18:19:23.052Z,24.40
2018-07-04T18:22:02.565Z,24.10
2018-07-04T18:24:42.211Z,23.90
2018-07-04T18:27:21.648Z,23.70
2018-07-04T18:30:02.030Z,23.70
2018-07-04T18:32:41.533Z,23.90
2018-07-04T18:35:21.031Z,23.90
2018-07-04T18:38:00.653Z,23.90
2018-07-04T18:40:40.492Z,23.90
2018-07-04T18:43:20.237Z,23.80
2018-07-04T18:46:04.823Z,23.70
2018-07-04T18:48:44.337Z,23.60
2018-07-04T18:51:23.973Z,23.60
2018-07-04T18:56:38.297Z,23.40
2018-07-04T18:59:18.136Z,23.30
2018-07-04T19:02:02.212Z,23.20
2018-07-04T19:04:41.741Z,23.10
2018-07-04T19:07:21.633Z,23.00
2018-07-04T19:10:01.562Z,22.90
2018-07-04T19:12:41.220Z,22.80
2018-07-04T19:15:20.760Z,22.70
2018-07-04T19:18:01.562Z,22.60
2018-07-04T19:20:41.179Z,22.70
2018-07-04T19:23:20.972Z,22.60
2018-07-04T19:26:02.307Z,22.50
2018-07-04T19:28:42.500Z,22.50
2018-07-04T19:31:22.147Z,22.40
2018-07-04T19:34:02.465Z,22.30
2018-07-04T19:36:41.880Z,22.20
2018-07-04T19:39:21.449Z,22.20
2018-07-04T19:42:01.081Z,22.10
2018-07-04T19:44:40.691Z,21.90
2018-07-04T19:47:23.621Z,21.70
2018-07-04T19:50:03.847Z,21.50
2018-07-04T19:52:43.336Z,21.50
2018-07-04T19:55:23.112Z,21.40
2018-07-04T19:58:02.832Z,21.30
2018-07-04T20:00:44.161Z,21.10
2018-07-04T20:03:24.832Z,21.00
2018-07-04T20:06:05.239Z,21.00
2018-07-04T20:08:44.752Z,21.10
2018-07-04T20:11:24.120Z,21.00
2018-07-04T20:14:03.647Z,20.80
2018-07-04T20:19:17.168Z,20.70
2018-07-04T20:21:57.194Z,20.70
2018-07-04T20:24:37.069Z,20.60
2018-07-04T20:27:16.625Z,20.50
2018-07-04T20:29:56.465Z,20.30
2018-07-04T20:32:36.003Z,20.30
2018-07-04T20:35:15.627Z,20.20
2018-07-04T20:40:41.364Z,20.10
2018-07-04T20:43:20.919Z,20.10
2018-07-04T20:48:37.448Z,20.00
2018-07-04T20:51:17.322Z,20.10
2018-07-04T20:53:56.785Z,20.00
2018-07-04T20:59:10.416Z,19.80
2018-07-04T21:01:49.961Z,19.70
2018-07-04T21:04:29.779Z,19.60
2018-07-04T21:07:09.449Z,19.50
2018-07-04T21:09:49.192Z,19.40
2018-07-04T21:12:29.375Z,19.40
2018-07-04T21:15:08.981Z,19.30
2018-07-04T21:17:48.584Z,19.30
2018-07-04T21:20:28.179Z,19.30
2018-07-04T21:23:07.762Z,19.30
2018-07-04T21:25:47.244Z,19.30
2018-07-04T21:28:26.776Z,19.30
2018-07-04T21:36:14.503Z,19.30
2018-07-04T21:38:54.067Z,19.30
2018-07-04T21:41:33.686Z,19.30
2018-07-04T21:44:13.280Z,19.20
2018-07-04T21:46:52.767Z,19.10
2018-07-04T21:52:10.241Z,19.00
2018-07-04T21:54:49.781Z,18.90
2018-07-04T21:57:29.325Z,18.90
2018-07-04T22:00:08.837Z,18.80
2018-07-04T22:02:48.329Z,18.80
2018-07-04T22:08:06.773Z,18.80
2018-07-04T22:13:20.473Z,18.60
2018-07-04T22:16:00.077Z,18.70
2018-07-04T22:18:40.548Z,18.60
2018-07-04T22:21:20.041Z,18.60
2018-07-04T22:24:00.397Z,18.60
2018-07-04T22:26:40.080Z,18.50
2018-07-04T22:29:19.580Z,18.40
2018-07-04T22:31:59.079Z,18.30
2018-07-04T22:34:39.583Z,18.30
2018-07-04T22:37:20.053Z,18.30
2018-07-04T22:39:59.589Z,18.30
2018-07-04T22:42:39.188Z,18.20
2018-07-04T22:45:18.641Z,18.20
2018-07-04T22:47:58.109Z,18.10
2018-07-04T22:50:40.682Z,18.00
2018-07-04T22:53:20.236Z,18.00
2018-07-04T22:55:59.871Z,18.00
2018-07-04T22:58:40.011Z,17.80
2018-07-04T23:01:19.477Z,17.80
2018-07-04T23:03:59.107Z,17.70
2018-07-04T23:06:38.653Z,17.70
2018-07-04T23:09:18.272Z,17.70
2018-07-04T23:11:57.892Z,17.60
2018-07-04T23:14:37.765Z,17.60
2018-07-04T23:17:17.624Z,17.60
2018-07-04T23:19:57.232Z,17.60
2018-07-04T23:22:36.780Z,17.60
2018-07-04T23:27:49.795Z,17.50
2018-07-04T23:30:29.256Z,17.40
2018-07-04T23:33:08.872Z,17.40
2018-07-04T23:35:52.316Z,17.40
2018-07-04T23:38:31.868Z,17.30
2018-07-04T23:41:11.320Z,17.30
2018-07-04T23:46:24.516Z,17.20
2018-07-04T23:49:04.037Z,17.10
2018-07-04T23:51:43.868Z,17.10
2018-07-04T23:54:23.601Z,17.00
2018-07-04T23:57:03.424Z,17.00
2018-07-04T23:59:42.910Z,17.10
